Time;durP1;ratioP1;P1;durP2;ratioP2;P2;SDS_P1;SDS_P2;PMS_P1;PMS_P2;Temp;Humidity;BMP_temperature;BMP_pressure;BME280_temperature;BME280_humidity;BME280_pressure;Samples;Min_cycle;Max_cycle;Signal;HPM_P1;HPM_P2
2023/09/22 00:01:43;;;;;;;16.80;13.23;;;;;;;;;;5081784;28;20024;-75
2023/09/22 00:04:10;;;;;;;15.88;13.55;;;;;;;;;;5080904;28;20416;-77
2023/09/22 00:06:36;;;;;;;14.75;12.65;;;;;;;;;;5071938;28;20431;-77
2023/09/22 00:09:02;;;;;;;17.27;15.07;;;;;;;;;;5083060;28;20032;-76
2023/09/22 00:11:28;;;;;;;15.18;13.50;;;;;;;;;;5083180;28;20028;-76
2023/09/22 00:13:53;;;;;;;16.00;12.55;;;;;;;;;;5081832;28;20031;-75
2023/09/22 00:16:19;;;;;;;14.77;13.27;;;;;;;;;;5083012;28;20030;-75
2023/09/22 00:18:44;;;;;;;21.98;12.93;;;;;;;;;;5082933;28;20443;-75
2023/09/22 00:21:09;;;;;;;13.40;11.93;;;;;;;;;;5081777;28;20040;-77
2023/09/22 00:23:35;;;;;;;12.15;9.63;;;;;;;;;;5075226;28;20119;-75
2023/09/22 00:26:02;;;;;;;15.65;10.27;;;;;;;;;;5066410;28;20512;-76
2023/09/22 00:28:27;;;;;;;21.60;12.15;;;;;;;;;;5077083;28;20024;-75
2023/09/22 00:30:53;;;;;;;11.32;6.35;;;;;;;;;;5082848;28;20081;-77
2023/09/22 00:33:18;;;;;;;15.38;10.57;;;;;;;;;;5081896;28;20030;-77
2023/09/22 00:35:43;;;;;;;16.00;10.27;;;;;;;;;;5083490;28;20447;-79
2023/09/22 00:38:10;;;;;;;11.68;10.32;;;;;;;;;;5082074;28;20024;-78
2023/09/22 00:40:35;;;;;;;12.40;10.90;;;;;;;;;;5082854;28;20030;-77
2023/09/22 00:43:11;;;;;;;18.88;12.52;;;;;;;;;;5082714;28;20052;-77
2023/09/22 00:45:42;;;;;;;14.32;12.30;;;;;;;;;;5081801;28;20055;-77
2023/09/22 00:48:08;;;;;;;17.75;12.55;;;;;;;;;;5082853;28;20024;-79
2023/09/22 00:50:34;;;;;;;19.23;13.15;;;;;;;;;;5086377;28;20020;-79
2023/09/22 00:52:59;;;;;;;15.23;10.32;;;;;;;;;;5084616;28;20024;-79
2023/09/22 00:55:24;;;;;;;14.98;9.88;;;;;;;;;;5076665;28;20032;-78
2023/09/22 00:57:51;;;;;;;9.90;7.63;;;;;;;;;;5077997;28;20032;-78
2023/09/22 01:00:18;;;;;;;9.63;6.30;;;;;;;;;;5082555;28;20463;-79
2023/09/22 01:02:43;;;;;;;7.38;6.07;;;;;;;;;;5086047;28;20043;-77
2023/09/22 01:05:08;;;;;;;10.25;5.65;;;;;;;;;;5087290;28;20035;-78
2023/09/22 01:07:34;;;;;;;10.70;5.47;;;;;;;;;;5086928;28;20464;-79
2023/09/22 01:10:09;;;;;;;8.65;5.82;;;;;;;;;;5084856;28;20031;-78
2023/09/22 01:12:35;;;;;;;12.98;5.88;;;;;;;;;;5087299;28;20035;-78
2023/09/22 01:15:00;;;;;;;10.80;5.85;;;;;;;;;;5086080;28;20028;-78
2023/09/22 01:17:26;;;;;;;7.60;4.45;;;;;;;;;;5075061;28;20032;-76
2023/09/22 01:19:51;;;;;;;7.68;4.30;;;;;;;;;;5074764;28;20026;-77
2023/09/22 01:22:17;;;;;;;9.27;4.60;;;;;;;;;;5086598;28;20339;-78
2023/09/22 01:24:42;;;;;;;11.57;5.00;;;;;;;;;;5073710;28;20428;-77
2023/09/22 01:27:08;;;;;;;12.00;4.90;;;;;;;;;;5084013;28;20682;-77
2023/09/22 01:29:33;;;;;;;8.50;4.75;;;;;;;;;;5080143;28;20028;-78
2023/09/22 01:32:00;;;;;;;9.07;4.30;;;;;;;;;;5078314;28;20043;-77
2023/09/22 01:34:25;;;;;;;7.20;3.38;;;;;;;;;;5087025;28;20023;-77
2023/09/22 01:36:50;;;;;;;8.15;3.42;;;;;;;;;;5085971;28;20024;-79
2023/09/22 01:39:16;;;;;;;5.82;3.67;;;;;;;;;;5073953;28;20020;-77
2023/09/22 01:41:42;;;;;;;5.97;3.22;;;;;;;;;;5086483;28;20451;-77
2023/09/22 01:44:07;;;;;;;9.15;3.40;;;;;;;;;;5084820;28;20398;-78
2023/09/22 01:46:32;;;;;;;6.60;2.80;;;;;;;;;;5072947;28;20076;-77
2023/09/22 01:48:58;;;;;;;8.50;3.08;;;;;;;;;;5083510;28;20347;-79
2023/09/22 01:51:24;;;;;;;5.55;2.78;;;;;;;;;;5085311;28;20458;-78
2023/09/22 01:53:49;;;;;;;6.70;2.95;;;;;;;;;;5086363;28;20067;-78
2023/09/22 01:56:14;;;;;;;6.80;3.13;;;;;;;;;;5085209;28;20031;-78
2023/09/22 01:58:40;;;;;;;6.90;3.17;;;;;;;;;;5085576;28;20492;-80
2023/09/22 02:01:05;;;;;;;9.15;3.22;;;;;;;;;;5084782;28;20028;-78
2023/09/22 02:03:30;;;;;;;6.07;3.15;;;;;;;;;;5072236;28;20031;-79
2023/09/22 02:05:58;;;;;;;6.82;3.03;;;;;;;;;;5071138;28;20028;-79
2023/09/22 02:08:24;;;;;;;7.93;2.80;;;;;;;;;;5081321;28;20419;-78
2023/09/22 02:10:49;;;;;;;7.80;3.20;;;;;;;;;;5073198;28;20039;-79
2023/09/22 02:13:15;;;;;;;7.50;2.92;;;;;;;;;;5085310;28;20309;-78
2023/09/22 02:15:40;;;;;;;6.20;2.60;;;;;;;;;;5086536;28;20016;-79
2023/09/22 02:18:05;;;;;;;7.32;3.40;;;;;;;;;;5070694;28;20451;-77
2023/09/22 02:20:31;;;;;;;5.18;2.70;;;;;;;;;;5069604;28;20047;-80
2023/09/22 02:22:57;;;;;;;7.03;2.90;;;;;;;;;;5084107;28;20035;-79
2023/09/22 02:25:23;;;;;;;9.70;2.90;;;;;;;;;;5086012;28;20028;-78
2023/09/22 02:27:49;;;;;;;5.53;3.55;;;;;;;;;;5084264;28;20355;-79
2023/09/22 02:30:15;;;;;;;7.30;3.53;;;;;;;;;;5085304;28;20020;-79
2023/09/22 02:32:41;;;;;;;8.20;3.58;;;;;;;;;;5085273;28;20036;-79
2023/09/22 02:35:07;;;;;;;8.25;3.67;;;;;;;;;;5085500;28;20024;-79
2023/09/22 02:37:33;;;;;;;7.80;4.57;;;;;;;;;;5084506;28;20730;-78
2023/09/22 02:39:58;;;;;;;10.20;4.63;;;;;;;;;;5068020;28;20028;-78
2023/09/22 02:42:23;;;;;;;7.53;4.05;;;;;;;;;;5067682;28;20071;-77
2023/09/22 02:44:49;;;;;;;5.40;3.63;;;;;;;;;;5068862;28;20031;-77
2023/09/22 02:47:15;;;;;;;5.78;3.35;;;;;;;;;;5072077;28;20082;-77
2023/09/22 02:49:41;;;;;;;5.93;3.20;;;;;;;;;;5086115;28;20023;-78
2023/09/22 02:52:06;;;;;;;5.60;3.20;;;;;;;;;;5071634;28;20347;-79
2023/09/22 02:54:32;;;;;;;5.82;3.30;;;;;;;;;;5085004;28;20035;-78
2023/09/22 02:56:57;;;;;;;6.30;3.17;;;;;;;;;;5072986;28;20431;-78
2023/09/22 02:59:23;;;;;;;10.45;3.47;;;;;;;;;;5084113;28;20031;-79
2023/09/22 03:01:49;;;;;;;6.53;3.55;;;;;;;;;;5083695;28;20454;-79
2023/09/22 03:04:15;;;;;;;7.68;3.00;;;;;;;;;;5084793;28;20039;-77
2023/09/22 03:06:40;;;;;;;7.55;3.55;;;;;;;;;;5084792;28;20023;-79
2023/09/22 03:09:09;;;;;;;4.90;3.00;;;;;;;;;;5084540;28;20015;-79
2023/09/22 03:11:34;;;;;;;12.95;5.72;;;;;;;;;;5084141;28;20049;-78
2023/09/22 03:14:00;;;;;;;8.48;4.60;;;;;;;;;;5081759;28;20024;-79
2023/09/22 03:16:27;;;;;;;4.68;4.07;;;;;;;;;;5084178;28;20047;-78
2023/09/22 03:18:52;;;;;;;8.05;5.20;;;;;;;;;;5083939;28;20480;-77
2023/09/22 03:21:22;;;;;;;8.85;5.53;;;;;;;;;;5084446;28;20506;-78
2023/09/22 03:23:48;;;;;;;10.40;6.30;;;;;;;;;;5083767;28;20439;-77
2023/09/22 03:26:15;;;;;;;9.05;6.63;;;;;;;;;;5085064;28;20042;-78
2023/09/22 03:28:41;;;;;;;11.90;7.55;;;;;;;;;;5082514;28;20073;-77
2023/09/22 03:31:06;;;;;;;7.00;6.22;;;;;;;;;;5082662;28;20028;-78
2023/09/22 03:33:31;;;;;;;6.88;5.95;;;;;;;;;;5084282;28;20023;-77
2023/09/22 03:35:57;;;;;;;7.47;5.05;;;;;;;;;;5083739;28;20108;-77
2023/09/22 03:38:22;;;;;;;9.73;5.72;;;;;;;;;;5073621;28;20024;-79
2023/09/22 03:40:48;;;;;;;13.32;4.93;;;;;;;;;;5079647;28;20039;-76
2023/09/22 03:43:13;;;;;;;8.77;6.30;;;;;;;;;;5083313;28;20104;-76
2023/09/22 03:45:39;;;;;;;9.15;6.55;;;;;;;;;;5084060;28;20417;-76
2023/09/22 03:48:05;;;;;;;11.68;6.70;;;;;;;;;;5083708;28;20031;-78
2023/09/22 03:50:30;;;;;;;9.38;6.43;;;;;;;;;;5083903;28;20016;-78
2023/09/22 03:52:55;;;;;;;10.80;6.50;;;;;;;;;;5083718;28;20125;-78
2023/09/22 03:55:21;;;;;;;11.65;6.93;;;;;;;;;;5082322;28;20081;-79
2023/09/22 03:57:46;;;;;;;13.77;7.70;;;;;;;;;;5083962;28;20415;-77
2023/09/22 04:00:19;;;;;;;20.67;7.63;;;;;;;;;;5084428;28;20027;-78
2023/09/22 04:02:45;;;;;;;11.75;7.97;;;;;;;;;;5073489;28;20067;-78
2023/09/22 04:05:13;;;;;;;14.40;7.10;;;;;;;;;;5067762;28;20054;-77
2023/09/22 04:07:39;;;;;;;12.50;6.80;;;;;;;;;;5067262;28;20043;-76
2023/09/22 04:10:07;;;;;;;8.07;6.25;;;;;;;;;;5066531;28;20424;-76
2023/09/22 04:12:33;;;;;;;16.50;8.07;;;;;;;;;;5067118;28;20036;-77
2023/09/22 04:14:59;;;;;;;10.48;6.80;;;;;;;;;;5076295;28;20081;-76
2023/09/22 04:17:24;;;;;;;12.95;7.53;;;;;;;;;;5083892;28;20035;-74
2023/09/22 04:19:50;;;;;;;13.25;7.57;;;;;;;;;;5084294;28;20028;-76
2023/09/22 04:22:17;;;;;;;9.73;6.30;;;;;;;;;;5077289;28;20028;-76
2023/09/22 04:24:47;;;;;;;9.85;6.55;;;;;;;;;;5074014;28;20032;-76
2023/09/22 04:27:14;;;;;;;7.93;5.90;;;;;;;;;;5070154;28;20107;-75
2023/09/22 04:29:39;;;;;;;9.43;6.30;;;;;;;;;;5082863;28;20109;-76
2023/09/22 04:32:05;;;;;;;12.00;6.63;;;;;;;;;;5083409;28;20392;-76
2023/09/22 04:34:30;;;;;;;9.95;6.18;;;;;;;;;;5073761;28;24179;-76
2023/09/22 04:36:55;;;;;;;12.40;6.60;;;;;;;;;;5078440;28;20507;-76
2023/09/22 04:39:21;;;;;;;10.45;6.25;;;;;;;;;;5075672;28;20028;-76
2023/09/22 04:41:47;;;;;;;7.55;6.13;;;;;;;;;;5075020;28;20540;-74
2023/09/22 04:44:12;;;;;;;9.32;6.45;;;;;;;;;;5071682;28;20020;-76
2023/09/22 04:46:37;;;;;;;13.38;6.50;;;;;;;;;;5067569;28;20060;-76
2023/09/22 04:49:03;;;;;;;7.20;6.22;;;;;;;;;;5080311;28;20027;-75
2023/09/22 04:51:28;;;;;;;8.52;6.88;;;;;;;;;;5070536;28;20028;-76
2023/09/22 04:53:54;;;;;;;7.93;5.70;;;;;;;;;;5080106;28;20132;-76
2023/09/22 04:56:21;;;;;;;13.82;6.90;;;;;;;;;;5079978;28;20501;-75
2023/09/22 04:58:47;;;;;;;7.97;6.72;;;;;;;;;;5082593;28;20461;-75
2023/09/22 05:01:14;;;;;;;9.85;7.72;;;;;;;;;;5082104;28;20067;-75
2023/09/22 05:03:39;;;;;;;10.90;7.65;;;;;;;;;;5082089;28;20050;-75
2023/09/22 05:06:12;;;;;;;9.45;6.78;;;;;;;;;;5068116;28;20456;-77
2023/09/22 05:08:38;;;;;;;13.90;7.35;;;;;;;;;;5065793;28;20136;-76
2023/09/22 05:11:07;;;;;;;9.05;6.75;;;;;;;;;;5075245;28;20840;-75
2023/09/22 05:13:34;;;;;;;9.43;5.88;;;;;;;;;;5071746;28;20107;-75
2023/09/22 05:16:07;;;;;;;9.93;5.88;;;;;;;;;;5068891;28;20016;-77
2023/09/22 05:18:33;;;;;;;7.90;5.45;;;;;;;;;;5080241;28;20028;-76
2023/09/22 05:20:59;;;;;;;9.98;6.03;;;;;;;;;;5070471;28;20101;-76
2023/09/22 05:23:25;;;;;;;6.63;5.13;;;;;;;;;;5067621;28;20036;-76
2023/09/22 05:25:50;;;;;;;6.75;4.30;;;;;;;;;;5079960;28;20028;-76
2023/09/22 05:28:15;;;;;;;6.43;4.22;;;;;;;;;;5071872;28;20044;-76
2023/09/22 05:30:41;;;;;;;9.38;4.38;;;;;;;;;;5082330;28;20020;-75
2023/09/22 05:33:10;;;;;;;8.30;4.13;;;;;;;;;;5072935;28;20031;-76
2023/09/22 05:35:35;;;;;;;6.57;4.07;;;;;;;;;;5077955;28;20520;-75
2023/09/22 05:38:02;;;;;;;5.78;3.97;;;;;;;;;;5086196;28;20032;-74
2023/09/22 05:40:28;;;;;;;5.20;3.33;;;;;;;;;;5084958;28;20449;-76
2023/09/22 05:42:53;;;;;;;6.53;4.35;;;;;;;;;;5085212;28;20051;-75
2023/09/22 05:45:19;;;;;;;6.00;3.75;;;;;;;;;;5086028;28;20020;-77
2023/09/22 05:47:45;;;;;;;6.03;3.90;;;;;;;;;;5086203;28;20022;-75
2023/09/22 05:50:11;;;;;;;5.82;3.22;;;;;;;;;;5085230;28;20437;-78
2023/09/22 05:52:39;;;;;;;7.93;3.83;;;;;;;;;;5084354;28;20086;-78
2023/09/22 05:55:05;;;;;;;6.45;5.28;;;;;;;;;;5085620;28;20476;-77
2023/09/22 05:57:33;;;;;;;8.63;5.53;;;;;;;;;;5084703;28;20089;-75
2023/09/22 05:59:59;;;;;;;8.98;4.72;;;;;;;;;;5084459;28;20020;-77
2023/09/22 06:02:25;;;;;;;6.45;4.63;;;;;;;;;;5079378;28;20340;-77
2023/09/22 06:04:55;;;;;;;8.32;3.72;;;;;;;;;;5071569;28;22484;-78
2023/09/22 06:07:20;;;;;;;4.60;3.15;;;;;;;;;;5070880;28;20181;-75
2023/09/22 06:09:46;;;;;;;6.97;3.50;;;;;;;;;;5077063;28;20522;-75
2023/09/22 06:12:11;;;;;;;6.63;3.80;;;;;;;;;;5069193;28;20040;-76
2023/09/22 06:14:37;;;;;;;9.60;4.80;;;;;;;;;;5083592;28;20028;-76
2023/09/22 06:17:02;;;;;;;9.82;4.07;;;;;;;;;;5084947;28;20115;-76
2023/09/22 06:19:28;;;;;;;7.70;3.85;;;;;;;;;;5081464;28;20030;-76
2023/09/22 06:21:53;;;;;;;7.15;3.42;;;;;;;;;;5068446;28;20032;-77
2023/09/22 06:24:20;;;;;;;7.03;3.42;;;;;;;;;;5069348;28;20458;-76
2023/09/22 06:26:46;;;;;;;5.38;3.13;;;;;;;;;;5069539;28;20026;-76
2023/09/22 06:29:12;;;;;;;7.22;3.40;;;;;;;;;;5071732;28;20031;-78
2023/09/22 06:31:37;;;;;;;8.02;3.65;;;;;;;;;;5069160;28;20032;-78
2023/09/22 06:34:03;;;;;;;6.72;3.38;;;;;;;;;;5067976;28;20028;-77
2023/09/22 06:36:28;;;;;;;5.82;2.85;;;;;;;;;;5072923;28;20077;-76
2023/09/22 06:38:54;;;;;;;5.82;3.15;;;;;;;;;;5083588;28;20031;-76
2023/09/22 06:41:19;;;;;;;8.38;3.30;;;;;;;;;;5085048;28;20126;-76
2023/09/22 06:43:46;;;;;;;6.13;3.00;;;;;;;;;;5084531;28;20051;-76
2023/09/22 06:46:13;;;;;;;7.72;3.28;;;;;;;;;;5085555;28;20028;-77
2023/09/22 06:48:39;;;;;;;4.65;3.08;;;;;;;;;;5084920;28;20069;-75
2023/09/22 06:51:06;;;;;;;3.67;2.75;;;;;;;;;;5084305;28;20422;-74
2023/09/22 06:53:34;;;;;;;5.75;2.85;;;;;;;;;;5084831;28;20046;-78
2023/09/22 06:56:06;;;;;;;3.50;2.80;;;;;;;;;;5084960;28;20024;-76
2023/09/22 06:58:33;;;;;;;28.30;16.17;;;;;;;;;;5084798;28;20115;-75
2023/09/22 07:01:15;;;;;;;15.65;9.27;;;;;;;;;;5083089;28;20028;-77
2023/09/22 07:03:41;;;;;;;17.10;8.90;;;;;;;;;;5083590;28;20387;-75
2023/09/22 07:06:08;;;;;;;8.60;5.72;;;;;;;;;;5083301;28;20130;-76
2023/09/22 07:08:34;;;;;;;9.95;6.07;;;;;;;;;;5085201;28;20162;-75
2023/09/22 07:11:03;;;;;;;8.25;4.68;;;;;;;;;;5083813;28;20043;-75
2023/09/22 07:13:29;;;;;;;8.23;3.80;;;;;;;;;;5084177;28;20031;-76
2023/09/22 07:15:55;;;;;;;7.57;3.00;;;;;;;;;;5071471;28;20027;-75
2023/09/22 07:18:21;;;;;;;8.38;2.60;;;;;;;;;;5081926;28;20035;-75
2023/09/22 07:20:47;;;;;;;9.57;3.40;;;;;;;;;;5082857;28;20435;-77
2023/09/22 07:23:12;;;;;;;6.82;3.97;;;;;;;;;;5083038;28;21050;-75
2023/09/22 07:25:38;;;;;;;5.53;3.67;;;;;;;;;;5084473;28;20060;-75
2023/09/22 07:28:03;;;;;;;9.27;4.10;;;;;;;;;;5085716;28;20073;-75
2023/09/22 07:30:29;;;;;;;7.03;3.67;;;;;;;;;;5083603;28;20133;-75
2023/09/22 07:32:55;;;;;;;7.00;3.60;;;;;;;;;;5082615;28;20070;-75
2023/09/22 07:35:21;;;;;;;9.30;4.50;;;;;;;;;;5082987;28;20032;-74
2023/09/22 07:37:46;;;;;;;12.15;3.90;;;;;;;;;;5083140;28;20023;-77
2023/09/22 07:40:12;;;;;;;8.60;4.32;;;;;;;;;;5082557;28;20308;-75
2023/09/22 07:42:39;;;;;;;7.97;4.10;;;;;;;;;;5082348;28;20059;-74
2023/09/22 07:45:05;;;;;;;8.10;3.88;;;;;;;;;;5082172;28;20016;-77
2023/09/22 07:47:31;;;;;;;9.90;4.85;;;;;;;;;;5084266;28;20012;-74
2023/09/22 07:49:56;;;;;;;8.88;4.20;;;;;;;;;;5082982;28;20069;-75
2023/09/22 07:52:22;;;;;;;7.38;5.15;;;;;;;;;;5084649;28;20036;-78
2023/09/22 07:54:48;;;;;;;15.35;6.07;;;;;;;;;;5082855;28;20076;-74
2023/09/22 07:57:14;;;;;;;10.02;5.63;;;;;;;;;;5082780;28;20080;-74
2023/09/22 07:59:39;;;;;;;9.73;5.18;;;;;;;;;;5082542;28;20484;-75
2023/09/22 08:02:06;;;;;;;9.20;5.07;;;;;;;;;;5083057;28;20089;-77
2023/09/22 08:04:31;;;;;;;6.55;4.72;;;;;;;;;;5081226;28;20173;-75
2023/09/22 08:06:59;;;;;;;11.40;4.43;;;;;;;;;;5082134;28;20110;-75
2023/09/22 08:09:25;;;;;;;10.32;4.15;;;;;;;;;;5082353;28;20027;-74
2023/09/22 08:11:50;;;;;;;5.35;3.70;;;;;;;;;;5082325;28;20696;-75
2023/09/22 08:14:16;;;;;;;10.93;3.60;;;;;;;;;;5082300;28;20024;-74
2023/09/22 08:16:41;;;;;;;7.95;3.65;;;;;;;;;;5082037;28;20013;-78
2023/09/22 08:19:10;;;;;;;8.30;3.53;;;;;;;;;;5082006;28;20032;-76
2023/09/22 08:21:36;;;;;;;7.65;3.65;;;;;;;;;;5082206;28;20031;-75
2023/09/22 08:24:01;;;;;;;5.88;2.90;;;;;;;;;;5082967;28;20050;-77
2023/09/22 08:26:26;;;;;;;11.80;3.25;;;;;;;;;;5082300;28;20031;-75
2023/09/22 08:28:52;;;;;;;8.90;3.90;;;;;;;;;;5082822;28;20054;-78
2023/09/22 08:31:17;;;;;;;8.07;3.10;;;;;;;;;;5080572;28;20035;-75
2023/09/22 08:33:43;;;;;;;6.47;3.28;;;;;;;;;;5081609;28;20028;-75
2023/09/22 08:36:08;;;;;;;7.90;3.50;;;;;;;;;;5082105;28;20042;-74
2023/09/22 08:38:34;;;;;;;7.38;3.67;;;;;;;;;;5081000;28;20451;-75
2023/09/22 08:41:00;;;;;;;10.00;3.13;;;;;;;;;;5082644;28;20023;-75
2023/09/22 08:43:26;;;;;;;8.77;3.60;;;;;;;;;;5082727;28;20143;-76
2023/09/22 08:45:52;;;;;;;8.75;3.28;;;;;;;;;;5083204;28;20031;-77
2023/09/22 08:48:18;;;;;;;9.65;3.45;;;;;;;;;;5082409;28;20023;-76
2023/09/22 08:50:45;;;;;;;7.72;3.60;;;;;;;;;;5084341;28;20039;-75
2023/09/22 08:53:11;;;;;;;8.88;3.10;;;;;;;;;;5082055;28;20028;-76
2023/09/22 08:55:38;;;;;;;8.32;3.45;;;;;;;;;;5082350;28;20051;-75
2023/09/22 08:58:03;;;;;;;10.90;3.58;;;;;;;;;;5083053;28;20044;-75
2023/09/22 09:00:29;;;;;;;9.18;3.50;;;;;;;;;;5081634;28;20024;-75
2023/09/22 09:02:57;;;;;;;9.02;3.90;;;;;;;;;;5082298;28;20056;-75
2023/09/22 09:05:25;;;;;;;10.33;2.77;;;;;;;;;;5082359;28;20953;-75
2023/09/22 09:07:51;;;;;;;7.88;3.20;;;;;;;;;;5083281;28;20032;-75
2023/09/22 09:10:29;;;;;;;10.25;3.65;;;;;;;;;;5076676;28;20027;-75
2023/09/22 09:12:55;;;;;;;10.30;3.30;;;;;;;;;;5083324;28;20028;-76
2023/09/22 09:15:27;;;;;;;8.55;3.38;;;;;;;;;;5085570;28;20027;-75
2023/09/22 09:18:03;;;;;;;9.18;3.90;;;;;;;;;;5085789;28;20031;-75
2023/09/22 09:20:29;;;;;;;11.77;3.30;;;;;;;;;;5086629;28;20682;-76
2023/09/22 09:22:55;;;;;;;12.52;3.50;;;;;;;;;;5084448;28;20036;-74
2023/09/22 09:25:20;;;;;;;9.00;3.17;;;;;;;;;;5086777;28;20441;-75
2023/09/22 09:27:46;;;;;;;9.27;3.35;;;;;;;;;;5086442;28;20028;-75
2023/09/22 09:30:13;;;;;;;9.80;3.33;;;;;;;;;;5085617;28;20772;-76
2023/09/22 09:32:40;;;;;;;11.43;4.05;;;;;;;;;;5085878;28;20355;-75
2023/09/22 09:35:06;;;;;;;9.55;3.03;;;;;;;;;;5086046;28;20028;-75
2023/09/22 09:37:31;;;;;;;8.57;3.90;;;;;;;;;;5085514;28;20024;-77
2023/09/22 09:39:58;;;;;;;10.90;3.33;;;;;;;;;;5086643;28;20019;-76
2023/09/22 09:42:24;;;;;;;10.80;3.50;;;;;;;;;;5084951;28;20063;-76
2023/09/22 09:44:50;;;;;;;12.38;3.45;;;;;;;;;;5086913;28;20346;-76
2023/09/22 09:47:26;;;;;;;8.55;3.67;;;;;;;;;;5084422;28;20024;-77
2023/09/22 09:49:52;;;;;;;9.65;3.60;;;;;;;;;;5085295;28;20112;-75
2023/09/22 09:52:23;;;;;;;9.65;3.63;;;;;;;;;;5085735;28;20032;-74
2023/09/22 09:54:52;;;;;;;15.00;3.95;;;;;;;;;;5085901;28;20031;-76
2023/09/22 09:57:17;;;;;;;;;;;;;;;;;;5085527;28;20897;-73
2023/09/22 09:59:44;;;;;;;8.57;3.77;;;;;;;;;;5084460;28;19998;-75
2023/09/22 10:02:10;;;;;;;8.50;3.80;;;;;;;;;;5084850;28;20070;-76
2023/09/22 10:04:36;;;;;;;14.00;4.60;;;;;;;;;;5082119;28;20032;-77
2023/09/22 10:07:02;;;;;;;8.35;3.80;;;;;;;;;;5085208;28;20020;-75
2023/09/22 10:09:27;;;;;;;15.40;4.13;;;;;;;;;;5084512;28;20714;-77
2023/09/22 10:11:53;;;;;;;13.90;4.00;;;;;;;;;;5086478;28;20024;-76
2023/09/22 10:14:37;;;;;;;18.08;4.72;;;;;;;;;;5085707;28;20077;-76
2023/09/22 10:17:02;;;;;;;16.08;4.72;;;;;;;;;;5084425;28;20089;-77
2023/09/22 10:19:40;;;;;;;15.30;4.55;;;;;;;;;;5084909;28;20028;-78
2023/09/22 10:22:12;;;;;;;20.17;5.28;;;;;;;;;;5083287;28;20352;-75
2023/09/22 10:24:38;;;;;;;15.65;4.68;;;;;;;;;;5084310;28;20035;-77
2023/09/22 10:27:11;;;;;;;13.85;5.10;;;;;;;;;;5085966;28;20024;-75
2023/09/22 10:29:42;;;;;;;11.15;4.47;;;;;;;;;;5085174;28;20020;-78
2023/09/22 10:32:20;;;;;;;12.57;4.53;;;;;;;;;;5085407;28;20114;-79
2023/09/22 10:34:47;;;;;;;;;;;;;;;;;;5086556;28;20027;-79
2023/09/22 10:37:12;;;;;;;20.48;5.10;;;;;;;;;;5084225;28;19963;-78
2023/09/22 10:39:51;;;;;;;18.35;4.70;;;;;;;;;;5084020;28;20032;-77
2023/09/22 10:42:17;;;;;;;11.52;4.70;;;;;;;;;;5085785;28;20143;-78
2023/09/22 10:45:03;;;;;;;17.70;5.07;;;;;;;;;;5083120;28;20410;-76
2023/09/22 10:47:36;;;;;;;16.02;5.22;;;;;;;;;;5082778;28;20411;-77
2023/09/22 10:50:13;;;;;;;14.68;4.78;;;;;;;;;;5084042;28;20024;-76
2023/09/22 10:52:39;;;;;;;17.15;4.43;;;;;;;;;;5084275;28;20024;-76
2023/09/22 10:55:05;;;;;;;22.58;5.30;;;;;;;;;;5082644;28;20106;-75
2023/09/22 10:57:31;;;;;;;19.33;5.13;;;;;;;;;;5083204;28;20101;-76
2023/09/22 10:59:56;;;;;;;21.45;5.20;;;;;;;;;;5085097;28;20339;-76
2023/09/22 11:02:26;;;;;;;11.48;4.47;;;;;;;;;;5083274;28;20047;-76
2023/09/22 11:04:52;;;;;;;16.05;4.70;;;;;;;;;;5084900;28;20419;-75
2023/09/22 11:07:33;;;;;;;17.40;5.07;;;;;;;;;;5083945;28;20086;-75
2023/09/22 11:10:00;;;;;;;17.65;5.07;;;;;;;;;;5072423;28;20043;-76
2023/09/22 11:12:27;;;;;;;19.35;5.13;;;;;;;;;;5083586;28;20031;-75
2023/09/22 11:14:53;;;;;;;16.90;5.20;;;;;;;;;;5086007;28;20035;-76
2023/09/22 11:17:18;;;;;;;18.63;4.80;;;;;;;;;;5083609;28;20024;-76
2023/09/22 11:19:54;;;;;;;18.92;5.30;;;;;;;;;;5084109;28;20065;-77
2023/09/22 11:22:20;;;;;;;16.95;5.32;;;;;;;;;;5083577;28;20035;-77
2023/09/22 11:24:45;;;;;;;18.45;5.47;;;;;;;;;;5084522;28;20372;-77
2023/09/22 11:27:11;;;;;;;17.80;5.15;;;;;;;;;;5079635;28;20036;-76
2023/09/22 11:29:36;;;;;;;19.80;5.07;;;;;;;;;;5075659;28;20024;-76
2023/09/22 11:32:03;;;;;;;20.38;5.68;;;;;;;;;;5083534;28;20032;-76
2023/09/22 11:34:28;;;;;;;21.92;5.28;;;;;;;;;;5075452;28;20542;-76
2023/09/22 11:36:55;;;;;;;17.60;5.15;;;;;;;;;;5070467;28;20106;-76
2023/09/22 11:39:27;;;;;;;12.70;4.80;;;;;;;;;;5069111;28;21921;-77
2023/09/22 11:41:53;;;;;;;18.73;5.40;;;;;;;;;;5080489;28;20148;-76
2023/09/22 11:44:19;;;;;;;14.93;4.97;;;;;;;;;;5076460;28;20143;-78
2023/09/22 11:46:48;;;;;;;18.40;5.30;;;;;;;;;;5067539;28;20710;-76
2023/09/22 11:49:18;;;;;;;17.15;5.22;;;;;;;;;;5066540;28;20040;-75
2023/09/22 11:51:48;;;;;;;14.48;4.85;;;;;;;;;;5066470;28;20031;-75
2023/09/22 11:54:14;;;;;;;12.50;3.95;;;;;;;;;;5068057;28;20110;-74
2023/09/22 11:56:40;;;;;;;17.63;5.25;;;;;;;;;;5065243;28;20360;-76
2023/09/22 11:59:09;;;;;;;19.73;5.63;;;;;;;;;;5067705;28;20020;-75
2023/09/22 12:01:35;;;;;;;17.65;5.53;;;;;;;;;;5068179;28;20059;-76
2023/09/22 12:04:01;;;;;;;13.23;4.78;;;;;;;;;;5067735;28;20035;-78
2023/09/22 12:06:26;;;;;;;17.55;5.72;;;;;;;;;;5067708;28;20024;-75
2023/09/22 12:08:52;;;;;;;23.45;5.35;;;;;;;;;;5066498;28;20469;-75
2023/09/22 12:11:18;;;;;;;18.65;5.20;;;;;;;;;;5066414;28;20402;-75
2023/09/22 12:13:46;;;;;;;14.52;5.25;;;;;;;;;;5067347;28;20050;-77
2023/09/22 12:16:12;;;;;;;12.35;4.80;;;;;;;;;;5066551;28;20027;-77
2023/09/22 12:18:38;;;;;;;17.13;5.32;;;;;;;;;;5067530;28;20032;-75
2023/09/22 12:21:04;;;;;;;13.90;4.78;;;;;;;;;;5065202;28;20153;-77
2023/09/22 12:23:29;;;;;;;11.65;4.80;;;;;;;;;;5066720;28;20032;-76
2023/09/22 12:25:54;;;;;;;14.98;5.07;;;;;;;;;;5067221;28;20039;-76
2023/09/22 12:28:20;;;;;;;18.67;5.82;;;;;;;;;;5067652;28;20403;-76
2023/09/22 12:30:45;;;;;;;15.75;5.20;;;;;;;;;;5065876;28;20028;-79
2023/09/22 12:33:14;;;;;;;18.00;5.57;;;;;;;;;;5067685;28;20020;-75
2023/09/22 12:35:40;;;;;;;16.80;5.22;;;;;;;;;;5066230;28;20024;-75
2023/09/22 12:38:05;;;;;;;16.10;5.05;;;;;;;;;;5067355;28;20036;-78
2023/09/22 12:40:31;;;;;;;12.18;5.18;;;;;;;;;;5066804;28;20366;-75
2023/09/22 12:42:56;;;;;;;19.48;5.30;;;;;;;;;;5066172;28;20051;-75
2023/09/22 12:45:23;;;;;;;16.83;5.75;;;;;;;;;;5065514;28;20145;-76
2023/09/22 12:47:53;;;;;;;20.85;4.97;;;;;;;;;;5074018;28;20766;-76
2023/09/22 12:50:21;;;;;;;13.27;5.07;;;;;;;;;;5060628;28;20032;-79
2023/09/22 12:52:48;;;;;;;19.60;5.78;;;;;;;;;;5077095;28;20032;-79
2023/09/22 12:55:15;;;;;;;15.00;4.90;;;;;;;;;;5072551;28;20031;-74
2023/09/22 12:57:41;;;;;;;13.55;4.78;;;;;;;;;;5074098;28;20028;-76
2023/09/22 13:00:11;;;;;;;20.73;6.03;;;;;;;;;;5072655;28;20039;-74
2023/09/22 13:02:38;;;;;;;16.27;5.78;;;;;;;;;;5073548;28;20043;-73
2023/09/22 13:05:03;;;;;;;17.17;5.65;;;;;;;;;;5074544;28;20114;-73
2023/09/22 13:07:31;;;;;;;18.98;5.25;;;;;;;;;;5087897;28;20561;-75
2023/09/22 13:09:56;;;;;;;17.27;5.32;;;;;;;;;;5080910;28;20462;-73
2023/09/22 13:12:21;;;;;;;23.55;5.95;;;;;;;;;;5073155;28;20039;-73
2023/09/22 13:14:51;;;;;;;15.05;5.57;;;;;;;;;;5073573;28;20029;-72
2023/09/22 13:17:17;;;;;;;16.73;5.72;;;;;;;;;;5073680;28;20110;-74
2023/09/22 13:19:44;;;;;;;20.35;6.43;;;;;;;;;;5070468;28;20066;-74
2023/09/22 13:22:11;;;;;;;18.40;4.97;;;;;;;;;;5078834;28;20519;-76
2023/09/22 13:24:37;;;;;;;22.17;6.30;;;;;;;;;;5072037;27;20522;-75
2023/09/22 13:27:04;;;;;;;17.75;6.07;;;;;;;;;;5077348;28;20072;-78
2023/09/22 13:29:30;;;;;;;16.23;5.03;;;;;;;;;;5070889;28;20032;-75
2023/09/22 13:31:55;;;;;;;17.30;5.60;;;;;;;;;;5073501;28;20016;-76
2023/09/22 13:34:20;;;;;;;18.27;5.50;;;;;;;;;;5088600;28;20064;-77
2023/09/22 13:36:47;;;;;;;16.15;5.22;;;;;;;;;;5088341;28;20023;-76
2023/09/22 13:39:13;;;;;;;21.13;5.43;;;;;;;;;;5087639;27;20028;-78
2023/09/22 13:41:39;;;;;;;19.23;5.53;;;;;;;;;;5088639;28;20402;-76
2023/09/22 13:44:07;;;;;;;19.05;5.95;;;;;;;;;;5088843;28;20115;-77
2023/09/22 13:46:32;;;;;;;16.55;5.10;;;;;;;;;;5089966;28;20032;-76
2023/09/22 13:48:58;;;;;;;14.27;5.68;;;;;;;;;;5089374;28;20101;-77
2023/09/22 13:51:23;;;;;;;16.98;5.60;;;;;;;;;;5085808;28;20119;-75
2023/09/22 13:53:48;;;;;;;15.70;5.45;;;;;;;;;;5064067;28;20054;-76
2023/09/22 13:56:15;;;;;;;21.60;6.05;;;;;;;;;;5070779;28;20024;-76
2023/09/22 13:58:41;;;;;;;21.33;6.10;;;;;;;;;;5067014;28;20035;-75
2023/09/22 14:01:10;;;;;;;18.65;6.00;;;;;;;;;;5064962;28;20032;-74
2023/09/22 14:03:36;;;;;;;19.67;5.70;;;;;;;;;;5077404;28;20118;-75
2023/09/22 14:06:01;;;;;;;17.63;6.35;;;;;;;;;;5082557;28;20095;-74
2023/09/22 14:08:27;;;;;;;17.17;5.50;;;;;;;;;;5070853;28;20439;-77
2023/09/22 14:10:54;;;;;;;18.75;5.70;;;;;;;;;;5071630;28;20066;-76
2023/09/22 14:13:19;;;;;;;18.67;5.63;;;;;;;;;;5063600;28;20727;-76
2023/09/22 14:15:45;;;;;;;22.13;5.85;;;;;;;;;;5072018;28;20034;-76
2023/09/22 14:18:11;;;;;;;24.15;13.43;;;;;;;;;;5074248;28;20430;-78
2023/09/22 14:20:40;;;;;;;22.33;6.88;;;;;;;;;;5069636;28;20028;-77
2023/09/22 14:23:08;;;;;;;19.05;5.97;;;;;;;;;;5068620;28;20040;-75
2023/09/22 14:25:39;;;;;;;21.85;6.28;;;;;;;;;;5066205;28;20043;-76
2023/09/22 14:28:05;;;;;;;15.93;5.75;;;;;;;;;;5066567;28;20036;-76
2023/09/22 14:30:31;;;;;;;19.98;6.38;;;;;;;;;;5072850;28;20036;-76
2023/09/22 14:32:57;;;;;;;19.50;5.93;;;;;;;;;;5067301;28;20097;-75